Flight Track Log - Related Links

Times and Time Zones

All times are in EDT time to prevent confusion due to time zone crossing. See the SWA1319 flight status page for this flight to view local times or setup timezone preferences in your user account.

Time Position Orientation Groundspeed Altitude Reporting Facility
EDT Latitude Longitude Course Direction KTS MPH feet Rate Location/Type
Tue 11:56:13 PM 37.7333 -122.2500 288° West 143 165 1,500  Level Northern Cal TRACON
Tue 11:57:07 PM 37.7500 -122.3167 288° West 235 270 4,400 3,763 Climbing Northern Cal TRACON
Tue 11:58:11 PM 37.6903 -122.3583 209° Southwest 256 295 8,900 2,688 Climbing Oakland Center
Tue 11:59:12 PM 37.6067 -122.3853 194° South 292 336 10,000 1,525 Climbing Oakland Center
Wed 12:00:13 AM 37.5125 -122.4164 195° South 339 390 12,000 2,607 Climbing Oakland Center
Wed 12:01:14 AM 37.4208 -122.3731 159° South 377 434 15,300 3,049 Climbing Oakland Center
Wed 12:02:15 AM 37.3536 -122.2656 128° Southeast 391 450 18,200 2,656 Climbing Oakland Center
Wed 12:03:16 AM 37.2744 -122.1558 132° Southeast 420 483 20,700 2,754 Climbing Oakland Center
Wed 12:04:17 AM 37.1886 -122.0414 133° Southeast 445 512 23,800 2,727 Climbing Oakland Center
Wed 12:05:17 AM 37.1047 -121.9267 132° Southeast 447 514 26,200 2,331 Climbing Oakland Center
Wed 12:06:18 AM 36.9972 -121.7808 133° Southeast 474 545 28,500 1,377 Climbing Oakland Center
Wed 12:07:19 AM 36.9042 -121.6531 132° Southeast 494 568 29,000 246 Climbing Oakland Center
Wed 12:08:20 AM 36.8094 -121.5253 133° Southeast 503 579 29,000  Level Oakland Center
Wed 12:09:21 AM 36.7228 -121.4067 132° Southeast 506 582 29,000  Level Oakland Center
Wed 12:10:21 AM 36.6256 -121.2761 133° Southeast 513 590 29,000  Level Oakland Center
Wed 12:11:22 AM 36.5300 -121.1464 132° Southeast 509 586 29,000  Level Oakland Center
Wed 12:12:23 AM 36.4356 -121.0181 132° Southeast 505 581 29,000  Level Oakland Center
Wed 12:13:24 AM 36.3386 -120.8889 133° Southeast 510 587 29,000  Level Oakland Center
Wed 12:14:25 AM 36.2200 -120.7325 133° Southeast 519 597 29,000  Level Oakland Center
Wed 12:15:25 AM 36.1200 -120.5994 133° Southeast 524 603 29,000  Level Oakland Center
Wed 12:16:26 AM 36.0197 -120.4664 133° Southeast 528 608 29,000  Level Oakland Center
Wed 12:17:27 AM 35.9189 -120.3350 133° Southeast 526 605 29,000  Level Oakland Center
Wed 12:18:28 AM 35.8169 -120.2019 133° Southeast 530 610 29,000  Level Oakland Center
Wed 12:19:29 AM 35.7156 -120.0694 133° Southeast 527 606 29,000  Level Oakland Center
Wed 12:20:29 AM 35.6072 -119.9456 137° Southeast 525 604 29,000  Level Oakland Center
Wed 12:21:30 AM 35.4861 -119.8403 145° Southeast 527 606 29,000  Level Oakland Center
Wed 12:22:31 AM 35.3644 -119.7367 145° Southeast 527 606 29,000 -49 Level Oakland Center
Wed 12:23:32 AM 35.2442 -119.6328 145° Southeast 527 606 28,900 -49 Descending Oakland Center
Wed 12:24:33 AM 35.1264 -119.5317 145° Southeast 518 596 28,900 -443 Level Oakland Center
Wed 12:25:34 AM 35.0089 -119.4314 145° Southeast 515 593 28,000 -942 Descending Oakland Center
Wed 12:26:34 AM 34.8897 -119.3286 145° Southeast 520 598 27,000 -1,041 Descending Oakland Center
Wed 12:27:35 AM 34.7722 -119.2300 145° Southeast 516 594 25,900 -1,082 Descending Oakland Center
Wed 12:28:36 AM 34.6578 -119.1328 145° Southeast 507 583 24,800 -2,153 Descending Oakland Center
Wed 12:29:46 AM 34.5167 -119.0164 146° Southeast 492 566 21,200 -3,160 Descending Los Angeles Center
Wed 12:30:47 AM 34.4039 -118.9222 145° Southeast 487 560 17,900 -3,098 Descending Los Angeles Center
Wed 12:31:48 AM 34.2928 -118.8583 155° Southeast 449 517 14,900 -2,754 Descending Los Angeles Center
Wed 12:32:49 AM 34.1836 -118.8189 163° South 403 464 12,300 -1,756 Descending Los Angeles Center
Wed 12:33:51 AM 34.0900 -118.7825 162° South 353 406 11,300 -1,024 Descending Los Angeles Center
Wed 12:34:52 AM 34.0331 -118.6978 129° Southeast 319 367 10,200 -1,131 Descending Los Angeles Center
Wed 12:35:53 AM 34.0236 -118.5989 97° East 299 344 9,000 -1,268 Descending Los Angeles Center
Wed 12:36:55 AM 34.0136 -118.4997 97° East 278 320 7,600 -1,220 Descending Los Angeles Center
Wed 12:37:56 AM 34.0142 -118.4275 89° East 263 303 6,500 -1,328 Descending Los Angeles Center
Wed 12:38:57 AM 34.0217 -118.3386 84° East 263 303 4,900 -1,279 Descending Los Angeles Center
Wed 12:39:58 AM 33.9953 -118.2639 113° Southeast 237 273 3,900 -1,171 Descending Los Angeles Center
Wed 12:41:00 AM 33.9622 -118.3019 224° Southwest 191 220 2,500 -1,366 Descending Los Angeles Center
Wed 12:42:01 AM 33.9581 -118.3461 264° West 155 178 1,100 -1,033 Descending Los Angeles Center
Wed 12:43:02 AM 33.9544 -118.3878 264° West 137 158 400 -492 Descending Los Angeles Center
Wed 12:44:03 AM 33.9508 -118.4258 263° West 132 152 100 -295 Descending Los Angeles Center
Wed 12:46:00 AM 33.9425 -118.4081 228° Southwest  Level Estimated

Login

Don't have an account? Register now (free) for customized features, flight alerts, and more!